sensor_id;sensor_type;location;lat;lon;timestamp;temperature;humidity
24408;DHT22;12542;50.924;4.516;2023-04-07T00:00:51;10.80;99.90
24408;DHT22;12542;50.924;4.516;2023-04-07T00:03:17;10.70;99.90
24408;DHT22;12542;50.924;4.516;2023-04-07T00:05:42;10.60;99.90
24408;DHT22;12542;50.924;4.516;2023-04-07T00:08:08;10.70;99.90
24408;DHT22;12542;50.924;4.516;2023-04-07T00:10:34;10.50;99.90
24408;DHT22;12542;50.924;4.516;2023-04-07T00:13:00;10.60;99.90
24408;DHT22;12542;50.924;4.516;2023-04-07T00:15:26;10.80;99.90
24408;DHT22;12542;50.924;4.516;2023-04-07T00:17:52;10.80;99.90
24408;DHT22;12542;50.924;4.516;2023-04-07T00:20:18;10.90;99.90
24408;DHT22;12542;50.924;4.516;2023-04-07T00:22:46;11.00;99.90
24408;DHT22;12542;50.924;4.516;2023-04-07T00:25:12;11.00;99.90
24408;DHT22;12542;50.924;4.516;2023-04-07T00:27:37;11.00;99.90
24408;DHT22;12542;50.924;4.516;2023-04-07T00:30:04;11.00;99.90
24408;DHT22;12542;50.924;4.516;2023-04-07T00:32:30;10.90;99.90
24408;DHT22;12542;50.924;4.516;2023-04-07T00:34:57;11.00;99.90
24408;DHT22;12542;50.924;4.516;2023-04-07T00:37:23;11.00;99.90
24408;DHT22;12542;50.924;4.516;2023-04-07T00:39:50;11.10;99.90
24408;DHT22;12542;50.924;4.516;2023-04-07T00:42:17;11.00;99.90
24408;DHT22;12542;50.924;4.516;2023-04-07T00:44:43;10.90;99.90
24408;DHT22;12542;50.924;4.516;2023-04-07T00:47:08;10.90;99.90
24408;DHT22;12542;50.924;4.516;2023-04-07T00:49:36;11.00;99.90
24408;DHT22;12542;50.924;4.516;2023-04-07T00:52:03;10.90;99.90
24408;DHT22;12542;50.924;4.516;2023-04-07T00:54:31;11.00;99.90
24408;DHT22;12542;50.924;4.516;2023-04-07T00:56:57;10.80;99.90
24408;DHT22;12542;50.924;4.516;2023-04-07T00:59:23;10.80;99.90
24408;DHT22;12542;50.924;4.516;2023-04-07T01:07:00;10.60;99.90
24408;DHT22;12542;50.924;4.516;2023-04-07T01:09:36;10.50;99.90
24408;DHT22;12542;50.924;4.516;2023-04-07T01:12:20;10.60;99.90
24408;DHT22;12542;50.924;4.516;2023-04-07T01:14:54;10.70;99.90
24408;DHT22;12542;50.924;4.516;2023-04-07T01:17:23;10.70;99.90
24408;DHT22;12542;50.924;4.516;2023-04-07T01:20:02;10.70;99.90
24408;DHT22;12542;50.924;4.516;2023-04-07T01:22:56;10.60;99.90
24408;DHT22;12542;50.924;4.516;2023-04-07T01:28:39;10.60;99.90
24408;DHT22;12542;50.924;4.516;2023-04-07T01:31:07;10.60;99.90
24408;DHT22;12542;50.924;4.516;2023-04-07T01:33:34;10.60;99.90
24408;DHT22;12542;50.924;4.516;2023-04-07T01:36:01;10.50;99.90
24408;DHT22;12542;50.924;4.516;2023-04-07T01:38:28;10.50;99.90
24408;DHT22;12542;50.924;4.516;2023-04-07T01:40:55;10.50;99.90
24408;DHT22;12542;50.924;4.516;2023-04-07T01:43:22;10.50;99.90
24408;DHT22;12542;50.924;4.516;2023-04-07T01:45:49;10.50;99.90
24408;DHT22;12542;50.924;4.516;2023-04-07T01:48:16;10.40;99.90
24408;DHT22;12542;50.924;4.516;2023-04-07T01:50:43;10.40;99.90
24408;DHT22;12542;50.924;4.516;2023-04-07T01:53:10;10.40;99.90
24408;DHT22;12542;50.924;4.516;2023-04-07T01:55:37;10.40;99.90
24408;DHT22;12542;50.924;4.516;2023-04-07T01:58:06;10.20;99.90
24408;DHT22;12542;50.924;4.516;2023-04-07T02:00:31;10.20;99.90
24408;DHT22;12542;50.924;4.516;2023-04-07T02:03:09;10.30;99.90
24408;DHT22;12542;50.924;4.516;2023-04-07T02:05:38;10.20;99.90
24408;DHT22;12542;50.924;4.516;2023-04-07T02:08:07;10.10;99.90
24408;DHT22;12542;50.924;4.516;2023-04-07T02:10:36;10.10;99.90
24408;DHT22;12542;50.924;4.516;2023-04-07T02:13:04;10.00;99.90
24408;DHT22;12542;50.924;4.516;2023-04-07T02:15:31;10.00;99.90
24408;DHT22;12542;50.924;4.516;2023-04-07T02:17:58;10.00;99.90
24408;DHT22;12542;50.924;4.516;2023-04-07T02:20:24;10.10;99.90
24408;DHT22;12542;50.924;4.516;2023-04-07T02:22:51;10.00;99.90
24408;DHT22;12542;50.924;4.516;2023-04-07T02:25:27;9.90;99.90
24408;DHT22;12542;50.924;4.516;2023-04-07T02:27:54;10.00;99.90
24408;DHT22;12542;50.924;4.516;2023-04-07T02:30:20;9.90;99.90
24408;DHT22;12542;50.924;4.516;2023-04-07T02:32:46;9.90;99.90
24408;DHT22;12542;50.924;4.516;2023-04-07T02:35:13;10.00;99.90
24408;DHT22;12542;50.924;4.516;2023-04-07T02:37:38;10.00;99.90
24408;DHT22;12542;50.924;4.516;2023-04-07T02:40:05;10.00;99.90
24408;DHT22;12542;50.924;4.516;2023-04-07T02:42:31;10.00;99.90
24408;DHT22;12542;50.924;4.516;2023-04-07T02:44:57;10.10;99.90
24408;DHT22;12542;50.924;4.516;2023-04-07T02:47:23;10.10;99.90
24408;DHT22;12542;50.924;4.516;2023-04-07T02:49:49;10.10;99.90
24408;DHT22;12542;50.924;4.516;2023-04-07T02:52:14;10.30;99.90
24408;DHT22;12542;50.924;4.516;2023-04-07T02:54:40;10.30;99.90
24408;DHT22;12542;50.924;4.516;2023-04-07T02:57:06;10.30;99.90
24408;DHT22;12542;50.924;4.516;2023-04-07T02:59:31;10.20;99.90
24408;DHT22;12542;50.924;4.516;2023-04-07T03:01:57;10.10;99.90
24408;DHT22;12542;50.924;4.516;2023-04-07T03:04:24;10.10;99.90
24408;DHT22;12542;50.924;4.516;2023-04-07T03:06:50;10.10;99.90
24408;DHT22;12542;50.924;4.516;2023-04-07T03:09:15;10.20;99.90
24408;DHT22;12542;50.924;4.516;2023-04-07T03:11:41;10.10;99.90
24408;DHT22;12542;50.924;4.516;2023-04-07T03:14:07;10.10;99.90
24408;DHT22;12542;50.924;4.516;2023-04-07T03:16:35;10.00;99.90
24408;DHT22;12542;50.924;4.516;2023-04-07T03:19:01;10.10;99.90
24408;DHT22;12542;50.924;4.516;2023-04-07T03:21:26;10.10;99.90
24408;DHT22;12542;50.924;4.516;2023-04-07T03:23:53;10.10;99.90
24408;DHT22;12542;50.924;4.516;2023-04-07T03:26:19;10.20;99.90
24408;DHT22;12542;50.924;4.516;2023-04-07T03:28:46;10.20;99.90
24408;DHT22;12542;50.924;4.516;2023-04-07T03:31:11;10.20;99.90
24408;DHT22;12542;50.924;4.516;2023-04-07T03:33:37;10.20;99.90
24408;DHT22;12542;50.924;4.516;2023-04-07T03:36:03;10.20;99.90
24408;DHT22;12542;50.924;4.516;2023-04-07T03:38:29;10.10;99.90
24408;DHT22;12542;50.924;4.516;2023-04-07T03:40:54;10.20;99.90
24408;DHT22;12542;50.924;4.516;2023-04-07T03:43:20;10.20;99.90
24408;DHT22;12542;50.924;4.516;2023-04-07T03:45:46;10.20;99.90
24408;DHT22;12542;50.924;4.516;2023-04-07T03:48:12;10.20;99.90
24408;DHT22;12542;50.924;4.516;2023-04-07T03:50:38;10.00;99.90
24408;DHT22;12542;50.924;4.516;2023-04-07T03:53:04;10.00;99.90
24408;DHT22;12542;50.924;4.516;2023-04-07T03:55:30;10.20;99.90
24408;DHT22;12542;50.924;4.516;2023-04-07T03:57:56;10.10;99.90
24408;DHT22;12542;50.924;4.516;2023-04-07T04:00:22;10.10;99.90
24408;DHT22;12542;50.924;4.516;2023-04-07T04:02:48;10.10;99.90
24408;DHT22;12542;50.924;4.516;2023-04-07T04:05:14;9.90;99.90
24408;DHT22;12542;50.924;4.516;2023-04-07T04:07:41;10.10;99.90
24408;DHT22;12542;50.924;4.516;2023-04-07T04:10:10;10.00;99.90
24408;DHT22;12542;50.924;4.516;2023-04-07T04:12:36;10.10;99.90
24408;DHT22;12542;50.924;4.516;2023-04-07T04:15:01;10.10;99.90
24408;DHT22;12542;50.924;4.516;2023-04-07T04:17:27;10.10;99.90
24408;DHT22;12542;50.924;4.516;2023-04-07T04:19:55;10.10;99.90
24408;DHT22;12542;50.924;4.516;2023-04-07T04:22:21;10.10;99.90
24408;DHT22;12542;50.924;4.516;2023-04-07T04:24:46;10.10;99.90
24408;DHT22;12542;50.924;4.516;2023-04-07T04:27:12;10.00;99.90
24408;DHT22;12542;50.924;4.516;2023-04-07T04:29:37;10.00;99.90
24408;DHT22;12542;50.924;4.516;2023-04-07T04:32:03;10.00;99.90
24408;DHT22;12542;50.924;4.516;2023-04-07T04:34:29;10.00;99.90
24408;DHT22;12542;50.924;4.516;2023-04-07T04:36:55;10.00;99.90
24408;DHT22;12542;50.924;4.516;2023-04-07T04:39:21;9.90;99.90
24408;DHT22;12542;50.924;4.516;2023-04-07T04:41:47;9.90;99.90
24408;DHT22;12542;50.924;4.516;2023-04-07T04:44:13;9.80;99.90
24408;DHT22;12542;50.924;4.516;2023-04-07T04:46:39;9.80;99.90
24408;DHT22;12542;50.924;4.516;2023-04-07T04:49:05;9.90;99.90
24408;DHT22;12542;50.924;4.516;2023-04-07T04:51:31;9.90;99.90
24408;DHT22;12542;50.924;4.516;2023-04-07T04:53:59;9.80;99.90
24408;DHT22;12542;50.924;4.516;2023-04-07T04:56:25;9.80;99.90
24408;DHT22;12542;50.924;4.516;2023-04-07T04:58:50;9.50;99.90
24408;DHT22;12542;50.924;4.516;2023-04-07T05:01:16;9.50;99.90
24408;DHT22;12542;50.924;4.516;2023-04-07T05:03:42;9.60;99.90
24408;DHT22;12542;50.924;4.516;2023-04-07T05:06:07;9.50;99.90
24408;DHT22;12542;50.924;4.516;2023-04-07T05:08:33;9.60;99.90
24408;DHT22;12542;50.924;4.516;2023-04-07T05:10:59;9.60;99.90
24408;DHT22;12542;50.924;4.516;2023-04-07T05:13:25;9.50;99.90
24408;DHT22;12542;50.924;4.516;2023-04-07T05:15:50;9.30;99.90
24408;DHT22;12542;50.924;4.516;2023-04-07T05:18:16;9.30;99.90
24408;DHT22;12542;50.924;4.516;2023-04-07T05:20:43;9.40;99.90
24408;DHT22;12542;50.924;4.516;2023-04-07T05:23:09;9.40;99.90
24408;DHT22;12542;50.924;4.516;2023-04-07T05:25:34;9.30;99.90
24408;DHT22;12542;50.924;4.516;2023-04-07T05:28:01;9.40;99.90
24408;DHT22;12542;50.924;4.516;2023-04-07T05:30:26;9.40;99.90
24408;DHT22;12542;50.924;4.516;2023-04-07T05:32:52;9.40;99.90
24408;DHT22;12542;50.924;4.516;2023-04-07T05:35:18;9.50;99.90
24408;DHT22;12542;50.924;4.516;2023-04-07T05:37:44;9.60;99.90
24408;DHT22;12542;50.924;4.516;2023-04-07T05:40:12;9.60;99.90
24408;DHT22;12542;50.924;4.516;2023-04-07T05:42:38;9.70;99.90
24408;DHT22;12542;50.924;4.516;2023-04-07T05:45:04;9.90;99.90
24408;DHT22;12542;50.924;4.516;2023-04-07T05:47:30;10.10;99.90
24408;DHT22;12542;50.924;4.516;2023-04-07T05:49:56;10.40;99.90
24408;DHT22;12542;50.924;4.516;2023-04-07T05:52:22;10.60;99.90
24408;DHT22;12542;50.924;4.516;2023-04-07T05:54:47;10.60;99.90
24408;DHT22;12542;50.924;4.516;2023-04-07T05:57:15;10.80;99.90
24408;DHT22;12542;50.924;4.516;2023-04-07T05:59:44;11.10;99.90
24408;DHT22;12542;50.924;4.516;2023-04-07T06:02:10;11.00;99.90
24408;DHT22;12542;50.924;4.516;2023-04-07T06:04:35;10.70;99.90
24408;DHT22;12542;50.924;4.516;2023-04-07T06:07:04;10.70;99.90
24408;DHT22;12542;50.924;4.516;2023-04-07T06:09:29;10.60;99.90
24408;DHT22;12542;50.924;4.516;2023-04-07T06:11:55;10.60;99.90
24408;DHT22;12542;50.924;4.516;2023-04-07T06:14:22;10.70;99.90
24408;DHT22;12542;50.924;4.516;2023-04-07T06:16:48;10.70;99.90
24408;DHT22;12542;50.924;4.516;2023-04-07T06:19:14;10.60;99.90
24408;DHT22;12542;50.924;4.516;2023-04-07T06:21:40;10.70;99.90
24408;DHT22;12542;50.924;4.516;2023-04-07T06:24:06;10.70;99.90
24408;DHT22;12542;50.924;4.516;2023-04-07T06:26:32;10.80;99.90
24408;DHT22;12542;50.924;4.516;2023-04-07T06:28:58;11.00;99.90
24408;DHT22;12542;50.924;4.516;2023-04-07T06:31:24;11.10;99.90
24408;DHT22;12542;50.924;4.516;2023-04-07T06:33:50;11.30;99.90
24408;DHT22;12542;50.924;4.516;2023-04-07T06:36:16;11.50;99.90
24408;DHT22;12542;50.924;4.516;2023-04-07T06:38:42;11.60;99.90
24408;DHT22;12542;50.924;4.516;2023-04-07T06:41:08;11.70;99.90
24408;DHT22;12542;50.924;4.516;2023-04-07T06:43:39;11.60;99.90
24408;DHT22;12542;50.924;4.516;2023-04-07T06:46:05;12.10;99.90
24408;DHT22;12542;50.924;4.516;2023-04-07T06:48:31;12.90;99.90
24408;DHT22;12542;50.924;4.516;2023-04-07T06:50:57;13.10;99.90
24408;DHT22;12542;50.924;4.516;2023-04-07T06:53:22;12.80;99.90
24408;DHT22;12542;50.924;4.516;2023-04-07T06:55:48;12.60;99.90
24408;DHT22;12542;50.924;4.516;2023-04-07T06:58:14;12.70;99.90
24408;DHT22;12542;50.924;4.516;2023-04-07T07:00:40;14.00;99.90
24408;DHT22;12542;50.924;4.516;2023-04-07T07:03:05;15.90;99.90
24408;DHT22;12542;50.924;4.516;2023-04-07T07:05:32;17.30;99.90
24408;DHT22;12542;50.924;4.516;2023-04-07T07:07:57;18.30;99.90
24408;DHT22;12542;50.924;4.516;2023-04-07T07:10:23;19.00;99.90
24408;DHT22;12542;50.924;4.516;2023-04-07T07:12:50;20.00;99.90
24408;DHT22;12542;50.924;4.516;2023-04-07T07:15:16;21.00;99.90
24408;DHT22;12542;50.924;4.516;2023-04-07T07:17:45;21.80;99.90
24408;DHT22;12542;50.924;4.516;2023-04-07T07:20:10;21.60;99.90
24408;DHT22;12542;50.924;4.516;2023-04-07T07:22:36;22.30;99.80
24408;DHT22;12542;50.924;4.516;2023-04-07T07:25:02;21.50;99.90
24408;DHT22;12542;50.924;4.516;2023-04-07T07:27:28;22.10;98.30
24408;DHT22;12542;50.924;4.516;2023-04-07T07:29:54;21.40;98.90
24408;DHT22;12542;50.924;4.516;2023-04-07T07:32:20;19.90;99.90
24408;DHT22;12542;50.924;4.516;2023-04-07T07:34:45;17.90;99.90
24408;DHT22;12542;50.924;4.516;2023-04-07T07:37:11;16.90;99.90
24408;DHT22;12542;50.924;4.516;2023-04-07T07:39:37;16.00;99.90
24408;DHT22;12542;50.924;4.516;2023-04-07T07:42:02;15.10;99.90
24408;DHT22;12542;50.924;4.516;2023-04-07T07:44:28;14.50;99.90
24408;DHT22;12542;50.924;4.516;2023-04-07T07:46:54;13.40;99.90
24408;DHT22;12542;50.924;4.516;2023-04-07T07:49:19;13.20;99.90
24408;DHT22;12542;50.924;4.516;2023-04-07T07:51:46;12.70;99.90
24408;DHT22;12542;50.924;4.516;2023-04-07T07:54:12;12.40;99.90
24408;DHT22;12542;50.924;4.516;2023-04-07T07:56:37;12.60;99.90
24408;DHT22;12542;50.924;4.516;2023-04-07T07:59:05;12.60;99.90
24408;DHT22;12542;50.924;4.516;2023-04-07T08:01:31;12.70;99.90
24408;DHT22;12542;50.924;4.516;2023-04-07T08:03:56;12.70;99.90
24408;DHT22;12542;50.924;4.516;2023-04-07T08:06:22;12.70;99.90
24408;DHT22;12542;50.924;4.516;2023-04-07T08:08:48;12.70;99.90
24408;DHT22;12542;50.924;4.516;2023-04-07T08:11:14;12.40;99.90
24408;DHT22;12542;50.924;4.516;2023-04-07T08:13:41;12.30;99.90
24408;DHT22;12542;50.924;4.516;2023-04-07T08:16:10;12.30;99.90
24408;DHT22;12542;50.924;4.516;2023-04-07T08:18:36;12.40;99.90
24408;DHT22;12542;50.924;4.516;2023-04-07T08:21:04;12.20;99.90
24408;DHT22;12542;50.924;4.516;2023-04-07T08:23:30;11.90;99.90
24408;DHT22;12542;50.924;4.516;2023-04-07T08:25:56;11.80;99.90
24408;DHT22;12542;50.924;4.516;2023-04-07T08:28:24;11.90;99.90
24408;DHT22;12542;50.924;4.516;2023-04-07T08:30:50;12.00;99.90
24408;DHT22;12542;50.924;4.516;2023-04-07T08:33:16;12.40;99.90
24408;DHT22;12542;50.924;4.516;2023-04-07T08:35:42;12.50;99.90
24408;DHT22;12542;50.924;4.516;2023-04-07T08:38:10;12.70;99.90
24408;DHT22;12542;50.924;4.516;2023-04-07T08:40:36;12.80;99.90
24408;DHT22;12542;50.924;4.516;2023-04-07T08:43:07;12.90;99.90
24408;DHT22;12542;50.924;4.516;2023-04-07T08:45:37;12.80;99.90
24408;DHT22;12542;50.924;4.516;2023-04-07T08:48:10;12.80;99.90
24408;DHT22;12542;50.924;4.516;2023-04-07T08:50:39;13.10;99.90
24408;DHT22;12542;50.924;4.516;2023-04-07T08:53:12;13.40;99.90
24408;DHT22;12542;50.924;4.516;2023-04-07T08:55:40;13.00;99.90
24408;DHT22;12542;50.924;4.516;2023-04-07T08:58:08;13.50;99.90
24408;DHT22;12542;50.924;4.516;2023-04-07T09:00:38;13.30;99.90
24408;DHT22;12542;50.924;4.516;2023-04-07T09:03:06;13.20;99.90
24408;DHT22;12542;50.924;4.516;2023-04-07T09:05:33;13.10;99.90
24408;DHT22;12542;50.924;4.516;2023-04-07T09:07:59;13.20;99.90
24408;DHT22;12542;50.924;4.516;2023-04-07T09:10:25;13.30;99.90
24408;DHT22;12542;50.924;4.516;2023-04-07T09:12:51;13.30;99.90
24408;DHT22;12542;50.924;4.516;2023-04-07T09:15:17;13.30;99.90
24408;DHT22;12542;50.924;4.516;2023-04-07T09:17:43;13.50;99.90
24408;DHT22;12542;50.924;4.516;2023-04-07T09:20:12;13.70;99.90
24408;DHT22;12542;50.924;4.516;2023-04-07T09:22:38;13.80;99.90
24408;DHT22;12542;50.924;4.516;2023-04-07T09:25:15;14.10;99.90
24408;DHT22;12542;50.924;4.516;2023-04-07T09:27:53;14.60;99.90
24408;DHT22;12542;50.924;4.516;2023-04-07T09:30:19;14.90;99.90
24408;DHT22;12542;50.924;4.516;2023-04-07T09:32:45;14.80;99.90
24408;DHT22;12542;50.924;4.516;2023-04-07T09:35:11;14.80;99.90
24408;DHT22;12542;50.924;4.516;2023-04-07T09:37:36;14.80;99.90
24408;DHT22;12542;50.924;4.516;2023-04-07T09:40:02;14.80;99.90
24408;DHT22;12542;50.924;4.516;2023-04-07T09:42:28;15.40;99.90
24408;DHT22;12542;50.924;4.516;2023-04-07T09:44:58;15.70;99.90
24408;DHT22;12542;50.924;4.516;2023-04-07T09:47:28;15.90;99.90
24408;DHT22;12542;50.924;4.516;2023-04-07T09:49:55;16.50;99.90
24408;DHT22;12542;50.924;4.516;2023-04-07T09:52:52;16.50;99.90
24408;DHT22;12542;50.924;4.516;2023-04-07T09:55:21;16.40;99.90
24408;DHT22;12542;50.924;4.516;2023-04-07T09:57:51;16.20;99.90
24408;DHT22;12542;50.924;4.516;2023-04-07T10:00:17;16.10;99.90
24408;DHT22;12542;50.924;4.516;2023-04-07T10:02:43;16.30;99.90
24408;DHT22;12542;50.924;4.516;2023-04-07T10:05:09;16.40;99.90
24408;DHT22;12542;50.924;4.516;2023-04-07T10:07:35;16.50;99.90
24408;DHT22;12542;50.924;4.516;2023-04-07T10:10:05;16.20;99.90
24408;DHT22;12542;50.924;4.516;2023-04-07T10:12:33;16.30;99.90
24408;DHT22;12542;50.924;4.516;2023-04-07T10:15:00;16.10;99.90
24408;DHT22;12542;50.924;4.516;2023-04-07T10:17:27;15.60;99.90
24408;DHT22;12542;50.924;4.516;2023-04-07T10:19:57;15.00;99.90
24408;DHT22;12542;50.924;4.516;2023-04-07T10:22:26;14.70;99.90
24408;DHT22;12542;50.924;4.516;2023-04-07T10:25:03;14.80;99.90
24408;DHT22;12542;50.924;4.516;2023-04-07T10:30:21;14.30;99.90
24408;DHT22;12542;50.924;4.516;2023-04-07T10:32:50;14.00;99.90
24408;DHT22;12542;50.924;4.516;2023-04-07T10:35:16;13.90;99.90
24408;DHT22;12542;50.924;4.516;2023-04-07T10:40:40;14.00;99.90
24408;DHT22;12542;50.924;4.516;2023-04-07T10:43:07;14.00;99.90
24408;DHT22;12542;50.924;4.516;2023-04-07T10:48:18;14.00;99.90
24408;DHT22;12542;50.924;4.516;2023-04-07T10:50:45;14.10;99.90
24408;DHT22;12542;50.924;4.516;2023-04-07T10:53:12;14.20;99.90
24408;DHT22;12542;50.924;4.516;2023-04-07T10:55:42;14.20;99.90
24408;DHT22;12542;50.924;4.516;2023-04-07T11:01:00;14.00;99.90
24408;DHT22;12542;50.924;4.516;2023-04-07T11:03:30;14.10;99.90
24408;DHT22;12542;50.924;4.516;2023-04-07T11:06:12;14.20;99.90
24408;DHT22;12542;50.924;4.516;2023-04-07T11:08:46;14.00;99.90
24408;DHT22;12542;50.924;4.516;2023-04-07T11:11:13;13.90;99.90
24408;DHT22;12542;50.924;4.516;2023-04-07T11:16:06;14.10;99.90
24408;DHT22;12542;50.924;4.516;2023-04-07T11:18:33;14.00;99.90
24408;DHT22;12542;50.924;4.516;2023-04-07T11:21:04;14.00;99.90
24408;DHT22;12542;50.924;4.516;2023-04-07T11:23:40;14.00;99.90
24408;DHT22;12542;50.924;4.516;2023-04-07T11:26:06;13.70;99.90
24408;DHT22;12542;50.924;4.516;2023-04-07T11:28:33;13.60;99.90
24408;DHT22;12542;50.924;4.516;2023-04-07T11:30:59;13.60;99.90
24408;DHT22;12542;50.924;4.516;2023-04-07T11:33:29;13.40;99.90
24408;DHT22;12542;50.924;4.516;2023-04-07T11:35:57;13.60;99.90
24408;DHT22;12542;50.924;4.516;2023-04-07T11:38:26;13.60;99.90
24408;DHT22;12542;50.924;4.516;2023-04-07T11:40:53;13.60;99.90
24408;DHT22;12542;50.924;4.516;2023-04-07T11:43:25;13.90;99.90
24408;DHT22;12542;50.924;4.516;2023-04-07T11:46:06;14.00;99.90
24408;DHT22;12542;50.924;4.516;2023-04-07T11:48:33;14.20;99.90
24408;DHT22;12542;50.924;4.516;2023-04-07T11:51:01;14.30;99.90
24408;DHT22;12542;50.924;4.516;2023-04-07T11:53:36;14.30;99.90
24408;DHT22;12542;50.924;4.516;2023-04-07T11:56:13;14.20;99.90
24408;DHT22;12542;50.924;4.516;2023-04-07T11:58:47;14.30;99.90
24408;DHT22;12542;50.924;4.516;2023-04-07T12:01:13;14.20;99.90
24408;DHT22;12542;50.924;4.516;2023-04-07T12:03:54;14.30;99.90
24408;DHT22;12542;50.924;4.516;2023-04-07T12:06:34;14.20;99.90
24408;DHT22;12542;50.924;4.516;2023-04-07T12:09:03;14.40;99.90
24408;DHT22;12542;50.924;4.516;2023-04-07T12:11:30;14.30;99.90
24408;DHT22;12542;50.924;4.516;2023-04-07T12:13:57;14.30;99.90
24408;DHT22;12542;50.924;4.516;2023-04-07T12:16:23;14.10;99.90
24408;DHT22;12542;50.924;4.516;2023-04-07T12:18:50;14.00;99.90
24408;DHT22;12542;50.924;4.516;2023-04-07T12:21:19;14.10;99.90
24408;DHT22;12542;50.924;4.516;2023-04-07T12:23:45;14.20;99.90
24408;DHT22;12542;50.924;4.516;2023-04-07T12:26:12;14.30;99.90
24408;DHT22;12542;50.924;4.516;2023-04-07T12:28:38;14.40;99.90
24408;DHT22;12542;50.924;4.516;2023-04-07T12:31:04;14.50;99.90
24408;DHT22;12542;50.924;4.516;2023-04-07T12:33:30;14.40;99.90
24408;DHT22;12542;50.924;4.516;2023-04-07T12:35:57;14.40;99.90
24408;DHT22;12542;50.924;4.516;2023-04-07T12:38:23;14.50;99.90
24408;DHT22;12542;50.924;4.516;2023-04-07T12:40:48;14.60;99.90
24408;DHT22;12542;50.924;4.516;2023-04-07T12:43:14;15.20;99.90
24408;DHT22;12542;50.924;4.516;2023-04-07T12:45:42;15.20;99.90
24408;DHT22;12542;50.924;4.516;2023-04-07T12:48:11;15.50;99.90
24408;DHT22;12542;50.924;4.516;2023-04-07T12:50:37;15.50;99.90
24408;DHT22;12542;50.924;4.516;2023-04-07T12:53:03;15.40;99.90
24408;DHT22;12542;50.924;4.516;2023-04-07T12:55:32;15.30;99.90
24408;DHT22;12542;50.924;4.516;2023-04-07T12:57:58;15.30;99.90
24408;DHT22;12542;50.924;4.516;2023-04-07T13:00:24;15.30;99.90
24408;DHT22;12542;50.924;4.516;2023-04-07T13:02:50;15.50;99.90
24408;DHT22;12542;50.924;4.516;2023-04-07T13:05:17;15.20;99.90
24408;DHT22;12542;50.924;4.516;2023-04-07T13:07:43;14.70;99.90
24408;DHT22;12542;50.924;4.516;2023-04-07T13:10:09;14.40;99.90
24408;DHT22;12542;50.924;4.516;2023-04-07T13:12:36;14.00;99.90
24408;DHT22;12542;50.924;4.516;2023-04-07T13:15:02;13.80;99.90
24408;DHT22;12542;50.924;4.516;2023-04-07T13:17:28;13.70;99.90
24408;DHT22;12542;50.924;4.516;2023-04-07T13:19:54;13.50;99.90
24408;DHT22;12542;50.924;4.516;2023-04-07T13:22:20;13.60;99.90
24408;DHT22;12542;50.924;4.516;2023-04-07T13:24:46;13.80;99.90
24408;DHT22;12542;50.924;4.516;2023-04-07T13:27:12;13.50;99.90
24408;DHT22;12542;50.924;4.516;2023-04-07T13:29:38;13.50;99.90
24408;DHT22;12542;50.924;4.516;2023-04-07T13:32:08;13.60;99.90
24408;DHT22;12542;50.924;4.516;2023-04-07T13:34:35;13.50;99.90
24408;DHT22;12542;50.924;4.516;2023-04-07T13:37:02;13.50;99.90
24408;DHT22;12542;50.924;4.516;2023-04-07T13:39:28;13.30;99.90
24408;DHT22;12542;50.924;4.516;2023-04-07T13:41:55;13.20;99.90
24408;DHT22;12542;50.924;4.516;2023-04-07T13:44:21;13.20;99.90
24408;DHT22;12542;50.924;4.516;2023-04-07T13:46:47;13.30;99.90
24408;DHT22;12542;50.924;4.516;2023-04-07T13:49:13;13.40;99.90
24408;DHT22;12542;50.924;4.516;2023-04-07T13:51:39;13.40;99.90
24408;DHT22;12542;50.924;4.516;2023-04-07T13:54:05;13.50;99.90
24408;DHT22;12542;50.924;4.516;2023-04-07T13:56:32;13.60;99.90
24408;DHT22;12542;50.924;4.516;2023-04-07T13:59:00;13.70;99.90
24408;DHT22;12542;50.924;4.516;2023-04-07T14:01:26;13.60;99.90
24408;DHT22;12542;50.924;4.516;2023-04-07T14:03:52;13.80;99.90
24408;DHT22;12542;50.924;4.516;2023-04-07T14:06:17;13.90;99.90
24408;DHT22;12542;50.924;4.516;2023-04-07T14:08:47;13.90;99.90
24408;DHT22;12542;50.924;4.516;2023-04-07T14:11:20;13.90;99.90
24408;DHT22;12542;50.924;4.516;2023-04-07T14:13:49;14.00;99.90
24408;DHT22;12542;50.924;4.516;2023-04-07T14:16:16;13.90;99.90
24408;DHT22;12542;50.924;4.516;2023-04-07T14:18:42;13.40;99.90
24408;DHT22;12542;50.924;4.516;2023-04-07T14:21:08;13.00;99.90
24408;DHT22;12542;50.924;4.516;2023-04-07T14:23:34;12.80;99.90
24408;DHT22;12542;50.924;4.516;2023-04-07T14:26:00;12.70;99.90
24408;DHT22;12542;50.924;4.516;2023-04-07T14:28:26;12.60;99.90
24408;DHT22;12542;50.924;4.516;2023-04-07T14:30:53;12.50;99.90
24408;DHT22;12542;50.924;4.516;2023-04-07T14:33:19;12.60;99.90
24408;DHT22;12542;50.924;4.516;2023-04-07T14:35:45;12.60;99.90
24408;DHT22;12542;50.924;4.516;2023-04-07T14:38:11;12.60;99.90
24408;DHT22;12542;50.924;4.516;2023-04-07T14:40:37;12.60;99.90
24408;DHT22;12542;50.924;4.516;2023-04-07T14:43:02;12.70;99.90
24408;DHT22;12542;50.924;4.516;2023-04-07T14:45:29;12.60;99.90
24408;DHT22;12542;50.924;4.516;2023-04-07T14:47:54;12.60;99.90
24408;DHT22;12542;50.924;4.516;2023-04-07T14:50:20;12.90;99.90
24408;DHT22;12542;50.924;4.516;2023-04-07T14:52:48;12.90;99.90
24408;DHT22;12542;50.924;4.516;2023-04-07T14:55:13;12.90;99.90
24408;DHT22;12542;50.924;4.516;2023-04-07T14:57:39;13.00;99.90
24408;DHT22;12542;50.924;4.516;2023-04-07T15:00:05;13.00;99.90
24408;DHT22;12542;50.924;4.516;2023-04-07T15:02:32;12.80;99.90
24408;DHT22;12542;50.924;4.516;2023-04-07T15:04:58;12.80;99.90
24408;DHT22;12542;50.924;4.516;2023-04-07T15:07:24;12.90;99.90
24408;DHT22;12542;50.924;4.516;2023-04-07T15:09:55;13.00;99.90
24408;DHT22;12542;50.924;4.516;2023-04-07T15:12:21;13.00;99.90
24408;DHT22;12542;50.924;4.516;2023-04-07T15:14:50;13.20;99.90
24408;DHT22;12542;50.924;4.516;2023-04-07T15:17:16;13.30;99.90
24408;DHT22;12542;50.924;4.516;2023-04-07T15:19:42;13.30;99.90
24408;DHT22;12542;50.924;4.516;2023-04-07T15:22:08;13.40;99.90
24408;DHT22;12542;50.924;4.516;2023-04-07T15:24:34;13.40;99.90
24408;DHT22;12542;50.924;4.516;2023-04-07T15:27:00;13.20;99.90
24408;DHT22;12542;50.924;4.516;2023-04-07T15:29:26;13.20;99.90
24408;DHT22;12542;50.924;4.516;2023-04-07T15:31:51;12.90;99.90
24408;DHT22;12542;50.924;4.516;2023-04-07T15:34:17;13.00;99.90
24408;DHT22;12542;50.924;4.516;2023-04-07T15:36:43;13.10;99.90
24408;DHT22;12542;50.924;4.516;2023-04-07T15:39:08;13.00;99.90
24408;DHT22;12542;50.924;4.516;2023-04-07T15:41:34;12.80;99.90
24408;DHT22;12542;50.924;4.516;2023-04-07T15:44:01;12.60;99.90
24408;DHT22;12542;50.924;4.516;2023-04-07T15:46:27;12.40;99.90
24408;DHT22;12542;50.924;4.516;2023-04-07T15:48:53;12.40;99.90
24408;DHT22;12542;50.924;4.516;2023-04-07T15:51:18;12.60;99.90
24408;DHT22;12542;50.924;4.516;2023-04-07T15:53:44;12.60;99.90